createdAt,value
2022-09-14T00:01:25.927Z,10.13
2022-09-14T00:03:27.986Z,15.00
2022-09-14T00:05:29.549Z,8.00
2022-09-14T00:07:31.072Z,10.68
2022-09-14T00:09:32.879Z,8.52
2022-09-14T00:11:36.105Z,11.48
2022-09-14T00:13:38.660Z,9.73
2022-09-14T00:15:41.989Z,10.93
2022-09-14T00:17:43.642Z,11.55
2022-09-14T00:19:45.176Z,13.27
2022-09-14T00:21:50.833Z,11.52
2022-09-14T00:23:52.818Z,9.07
2022-09-14T00:25:54.425Z,8.23
2022-09-14T00:27:56.598Z,9.02
2022-09-14T00:29:58.126Z,8.93
2022-09-14T00:31:59.849Z,11.90
2022-09-14T00:34:02.701Z,10.00
2022-09-14T00:36:10.570Z,11.50
2022-09-14T00:38:12.123Z,10.52
2022-09-14T00:40:13.677Z,10.25
2022-09-14T00:42:19.439Z,11.77
2022-09-14T00:44:20.908Z,10.40
2022-09-14T00:46:22.846Z,11.63
2022-09-14T00:48:25.548Z,10.57
2022-09-14T00:50:27.075Z,8.75
2022-09-14T00:52:32.828Z,14.43
2022-09-14T00:54:58.505Z,7.93
2022-09-14T00:57:01.947Z,9.00
2022-09-14T00:59:09.402Z,9.15
2022-09-14T01:01:10.982Z,9.77
2022-09-14T01:03:12.586Z,9.25
2022-09-14T01:05:14.802Z,10.02
2022-09-14T01:07:26.589Z,8.63
2022-09-14T01:09:49.891Z,8.85
2022-09-14T01:12:00.352Z,8.23
2022-09-14T01:14:46.399Z,12.45
2022-09-14T01:17:10.723Z,9.60
2022-09-14T01:19:23.839Z,8.45
2022-09-14T01:21:32.659Z,9.93
2022-09-14T01:24:06.865Z,13.88
2022-09-14T01:26:08.408Z,10.63
2022-09-14T01:28:17.229Z,9.85
2022-09-14T01:30:21.156Z,8.55
2022-09-14T01:33:05.452Z,10.00
2022-09-14T01:35:25.910Z,7.65
2022-09-14T01:37:54.651Z,7.47
2022-09-14T01:40:01.566Z,11.40
2022-09-14T01:42:03.981Z,9.05
2022-09-14T01:44:23.256Z,8.90
2022-09-14T01:46:29.924Z,6.43
2022-09-14T01:48:45.347Z,11.23
2022-09-14T01:50:50.068Z,11.40
2022-09-14T01:53:08.001Z,9.52
2022-09-14T01:55:15.413Z,8.38
2022-09-14T01:57:27.677Z,9.15
2022-09-14T01:59:37.100Z,10.57
2022-09-14T02:01:45.505Z,9.77
2022-09-14T02:03:52.769Z,12.32
2022-09-14T02:06:01.683Z,10.90
2022-09-14T02:08:03.491Z,8.40
2022-09-14T02:10:09.007Z,9.52
2022-09-14T02:12:10.747Z,8.77
2022-09-14T02:14:12.281Z,9.60
2022-09-14T02:16:14.211Z,9.88
2022-09-14T02:18:15.995Z,11.50
2022-09-14T02:20:24.969Z,10.00
2022-09-14T02:22:28.025Z,9.27
2022-09-14T02:24:29.848Z,11.75
2022-09-14T02:26:31.732Z,10.10
2022-09-14T02:28:33.355Z,12.73
2022-09-14T02:31:18.172Z,11.55
2022-09-14T02:33:28.283Z,14.45
2022-09-14T02:35:38.565Z,10.07
2022-09-14T02:37:53.065Z,14.02
2022-09-14T02:40:25.292Z,11.52
2022-09-14T02:42:41.250Z,13.48
2022-09-14T02:44:51.692Z,10.25
2022-09-14T02:47:05.045Z,13.50
2022-09-14T02:49:21.461Z,11.77
2022-09-14T02:51:40.308Z,13.85
2022-09-14T02:53:47.579Z,14.75
2022-09-14T02:55:52.684Z,14.48
2022-09-14T02:58:03.434Z,15.57
2022-09-14T03:00:05.355Z,18.10
2022-09-14T03:02:06.866Z,14.00
2022-09-14T03:04:08.411Z,13.52
2022-09-14T03:06:10.152Z,16.63
2022-09-14T03:08:12.227Z,12.20
2022-09-14T03:10:13.815Z,22.42
2022-09-14T03:12:15.552Z,16.23
2022-09-14T03:14:17.135Z,17.08
2022-09-14T03:16:19.231Z,19.15
2022-09-14T03:18:20.852Z,18.77
2022-09-14T03:20:25.355Z,18.83
2022-09-14T03:22:26.846Z,18.83
2022-09-14T03:24:28.390Z,16.60
2022-09-14T03:26:30.023Z,17.90
2022-09-14T03:28:31.551Z,15.23
2022-09-14T03:30:33.675Z,24.95
2022-09-14T03:32:35.445Z,19.73
2022-09-14T03:34:37.047Z,15.32
2022-09-14T03:36:38.539Z,22.30
2022-09-14T03:38:43.895Z,15.68
2022-09-14T03:40:45.485Z,19.10
2022-09-14T03:42:48.401Z,24.10
2022-09-14T03:44:50.122Z,18.60
2022-09-14T03:46:51.670Z,16.15
2022-09-14T03:48:54.579Z,15.05
2022-09-14T03:50:56.091Z,14.02
2022-09-14T03:52:58.158Z,19.10
2022-09-14T03:54:59.683Z,17.88
2022-09-14T03:57:01.241Z,14.23
2022-09-14T03:59:02.747Z,11.65
2022-09-14T04:01:08.689Z,11.50
2022-09-14T04:03:10.234Z,11.75
2022-09-14T04:05:11.792Z,9.70
2022-09-14T04:07:13.268Z,10.50
2022-09-14T04:09:14.879Z,14.07
2022-09-14T04:11:20.288Z,9.35
2022-09-14T04:13:21.817Z,8.20
2022-09-14T04:15:23.368Z,11.57
2022-09-14T04:17:25.271Z,10.52
2022-09-14T04:19:26.773Z,12.55
2022-09-14T04:21:28.570Z,11.00
2022-09-14T04:23:30.135Z,10.40
2022-09-14T04:25:31.659Z,13.10
2022-09-14T04:27:33.250Z,9.02
2022-09-14T04:29:34.857Z,13.65
2022-09-14T04:31:36.445Z,10.30
2022-09-14T04:33:39.697Z,11.75
2022-09-14T04:35:41.263Z,11.10
2022-09-14T04:37:42.763Z,9.40
2022-09-14T04:39:44.376Z,7.80
2022-09-14T04:41:46.339Z,8.65
2022-09-14T04:43:50.556Z,8.25
2022-09-14T04:45:52.755Z,8.95
2022-09-14T04:47:54.550Z,10.13
2022-09-14T04:49:56.058Z,12.27
2022-09-14T04:51:57.548Z,19.55
2022-09-14T04:54:00.244Z,11.23
2022-09-14T04:56:02.921Z,9.98
2022-09-14T04:58:04.734Z,9.00
2022-09-14T05:00:06.792Z,9.60
2022-09-14T05:02:08.435Z,8.73
2022-09-14T05:04:11.675Z,10.77
2022-09-14T05:06:21.077Z,12.68
2022-09-14T05:08:22.572Z,11.38
2022-09-14T05:10:24.097Z,18.38
2022-09-14T05:12:25.636Z,9.98
2022-09-14T05:14:27.142Z,11.40
2022-09-14T05:16:34.605Z,12.73
2022-09-14T05:18:36.448Z,13.60
2022-09-14T05:20:39.168Z,12.10
2022-09-14T05:22:40.790Z,8.48
2022-09-14T05:24:42.276Z,8.50
2022-09-14T05:26:44.601Z,9.57
2022-09-14T05:28:50.209Z,14.82
2022-09-14T05:30:51.817Z,10.30
2022-09-14T05:32:57.460Z,11.60
2022-09-14T05:34:59.632Z,14.18
2022-09-14T05:37:01.140Z,11.27
2022-09-14T05:39:02.642Z,9.05
2022-09-14T05:41:05.232Z,11.30
2022-09-14T05:43:06.732Z,14.23
2022-09-14T05:45:08.533Z,12.48
2022-09-14T05:47:10.026Z,9.73
2022-09-14T05:49:11.517Z,12.80
2022-09-14T05:51:15.938Z,12.90
2022-09-14T05:53:17.586Z,12.60
2022-09-14T05:55:19.113Z,11.23
2022-09-14T05:57:20.645Z,8.95
2022-09-14T05:59:22.223Z,8.38
2022-09-14T06:01:29.060Z,9.40
2022-09-14T06:03:30.642Z,7.38
2022-09-14T06:05:32.233Z,9.15
2022-09-14T06:07:33.746Z,6.93
2022-09-14T06:09:35.459Z,11.07
2022-09-14T06:11:37.010Z,11.25
2022-09-14T06:13:38.690Z,10.77
2022-09-14T06:15:40.188Z,6.60
2022-09-14T06:17:41.712Z,7.15
2022-09-14T06:19:43.248Z,8.68
2022-09-14T06:21:44.793Z,6.20
2022-09-14T06:23:47.603Z,8.73
2022-09-14T06:25:49.196Z,14.35
2022-09-14T06:27:54.390Z,12.27
2022-09-14T06:29:55.948Z,10.98
2022-09-14T06:31:57.502Z,13.75
2022-09-14T06:33:59.068Z,11.80
2022-09-14T06:36:05.380Z,7.13
2022-09-14T06:38:06.879Z,10.63
2022-09-14T06:40:08.827Z,6.10
2022-09-14T06:42:10.400Z,10.13
2022-09-14T06:44:11.907Z,9.02
2022-09-14T06:46:16.476Z,11.65
2022-09-14T06:48:18.448Z,10.65
2022-09-14T06:50:20.021Z,10.55
2022-09-14T06:52:21.611Z,10.75
2022-09-14T06:54:23.784Z,8.23
2022-09-14T06:56:25.542Z,9.18
2022-09-14T06:58:27.031Z,9.95
2022-09-14T07:00:28.538Z,11.75
2022-09-14T07:02:30.125Z,10.43
2022-09-14T07:04:31.735Z,10.93
2022-09-14T07:06:39.578Z,14.02
2022-09-14T07:08:41.462Z,9.93
2022-09-14T07:10:44.190Z,8.55
2022-09-14T07:12:45.706Z,9.82
2022-09-14T07:14:47.211Z,9.43
2022-09-14T07:16:48.818Z,8.13
2022-09-14T07:18:53.977Z,8.55
2022-09-14T07:20:56.011Z,7.57
2022-09-14T07:22:57.637Z,12.02
2022-09-14T07:24:59.197Z,11.10
2022-09-14T07:27:00.776Z,11.18
2022-09-14T07:29:05.038Z,9.75
2022-09-14T07:31:15.923Z,8.30
2022-09-14T07:33:17.472Z,9.32
2022-09-14T07:35:19.104Z,11.18
2022-09-14T07:37:20.616Z,9.02
2022-09-14T07:39:22.141Z,7.57
2022-09-14T07:41:29.077Z,10.35
2022-09-14T07:43:30.859Z,9.07
2022-09-14T07:45:32.490Z,10.05
2022-09-14T07:47:34.235Z,9.18
2022-09-14T07:49:35.726Z,8.95
2022-09-14T07:51:37.934Z,10.95
2022-09-14T07:53:45.688Z,8.57
2022-09-14T07:55:47.261Z,7.00
2022-09-14T07:57:56.932Z,6.28
2022-09-14T07:59:58.741Z,9.38
2022-09-14T08:02:00.472Z,10.88
2022-09-14T08:04:05.432Z,5.97
2022-09-14T08:06:10.944Z,8.20
2022-09-14T08:08:12.491Z,8.15
2022-09-14T08:10:14.132Z,6.88
2022-09-14T08:12:18.330Z,8.77
2022-09-14T08:14:19.862Z,9.52
2022-09-14T08:16:22.727Z,7.60
2022-09-14T08:18:24.320Z,5.72
2022-09-14T08:20:25.842Z,12.07
2022-09-14T08:22:27.779Z,16.33
2022-09-14T08:24:29.311Z,14.55
2022-09-14T08:26:31.546Z,9.70
2022-09-14T08:28:33.972Z,8.10
2022-09-14T08:30:35.500Z,9.07
2022-09-14T08:32:37.036Z,6.10
2022-09-14T08:34:38.794Z,9.07
2022-09-14T08:36:41.722Z,5.43
2022-09-14T08:38:43.745Z,9.05
2022-09-14T08:40:45.916Z,15.68
2022-09-14T08:42:48.212Z,16.13
2022-09-14T08:44:53.712Z,8.30
2022-09-14T08:46:59.883Z,7.38
2022-09-14T08:49:07.330Z,6.30
2022-09-14T08:51:09.539Z,6.97
2022-09-14T08:53:11.068Z,5.97
2022-09-14T08:55:34.488Z,5.95
2022-09-14T08:57:44.284Z,6.55
2022-09-14T09:00:04.343Z,7.40
2022-09-14T09:02:24.355Z,4.70
2022-09-14T09:04:35.403Z,7.60
2022-09-14T09:06:42.881Z,4.97
2022-09-14T09:09:00.530Z,5.90
2022-09-14T09:11:05.670Z,4.57
2022-09-14T09:13:12.083Z,6.65
2022-09-14T09:15:23.929Z,5.28
2022-09-14T09:17:29.593Z,7.28
2022-09-14T09:19:39.309Z,8.15
2022-09-14T09:21:45.431Z,4.80
2022-09-14T09:23:47.301Z,8.45
2022-09-14T09:25:54.090Z,7.28
2022-09-14T09:28:02.706Z,5.03
2022-09-14T09:30:04.642Z,6.15
2022-09-14T09:32:08.147Z,6.85
2022-09-14T09:34:15.093Z,5.80
2022-09-14T09:36:17.251Z,8.93
2022-09-14T09:38:24.849Z,5.57
2022-09-14T09:40:34.381Z,7.80
2022-09-14T09:42:36.022Z,16.92
2022-09-14T09:45:04.199Z,26.15
2022-09-14T09:47:06.052Z,10.05
2022-09-14T09:49:22.018Z,56.40
2022-09-14T09:51:24.137Z,30.63
2022-09-14T09:53:25.968Z,26.35
2022-09-14T09:55:35.480Z,25.13
2022-09-14T09:57:37.361Z,30.20
2022-09-14T09:59:44.300Z,17.85
2022-09-14T10:01:45.926Z,20.20
2022-09-14T10:04:00.633Z,13.30
2022-09-14T10:06:07.715Z,17.35
2022-09-14T10:08:15.132Z,15.18
2022-09-14T10:10:19.351Z,6.60
2022-09-14T10:12:21.083Z,14.55
2022-09-14T10:14:26.522Z,10.90
2022-09-14T10:16:34.791Z,17.77
2022-09-14T10:18:36.469Z,8.85
2022-09-14T10:20:53.061Z,9.57
2022-09-14T10:22:54.599Z,12.55
2022-09-14T10:24:59.144Z,22.52
2022-09-14T10:27:00.808Z,30.98
2022-09-14T10:29:28.993Z,21.45
2022-09-14T10:31:32.663Z,25.95
2022-09-14T10:33:35.294Z,8.07
2022-09-14T10:35:49.251Z,7.35
2022-09-14T10:38:17.970Z,6.32
2022-09-14T10:40:20.983Z,10.65
2022-09-14T10:42:31.764Z,13.35
2022-09-14T10:44:52.280Z,13.48
2022-09-14T10:47:06.159Z,13.75
2022-09-14T10:49:29.068Z,27.10
2022-09-14T10:52:10.954Z,9.63
2022-09-14T10:54:27.667Z,5.78
2022-09-14T10:56:53.616Z,29.75
2022-09-14T10:59:07.100Z,56.85
2022-09-14T11:01:23.457Z,102.28
2022-09-14T11:03:33.686Z,97.30
2022-09-14T11:06:27.382Z,44.15
2022-09-14T11:08:36.564Z,30.80
2022-09-14T11:11:01.099Z,45.90
2022-09-14T11:13:36.300Z,38.50
2022-09-14T11:15:59.711Z,9.05
2022-09-14T11:18:14.356Z,13.70
2022-09-14T11:20:48.035Z,22.08
2022-09-14T11:23:18.550Z,16.00
2022-09-14T11:25:24.101Z,8.98
2022-09-14T11:27:36.819Z,13.35
2022-09-14T11:29:42.983Z,14.98
2022-09-14T11:32:16.905Z,13.13
2022-09-14T11:34:25.807Z,6.65
2022-09-14T11:36:49.288Z,6.00
2022-09-14T11:38:57.985Z,5.30
2022-09-14T11:41:21.752Z,5.82
2022-09-14T11:43:26.871Z,50.80
2022-09-14T11:45:41.342Z,63.22
2022-09-14T11:47:51.478Z,18.83
2022-09-14T11:50:00.341Z,14.77
2022-09-14T11:52:11.570Z,17.95
2022-09-14T11:54:19.328Z,8.32
2022-09-14T11:56:34.059Z,6.95
2022-09-14T11:58:36.167Z,6.15
2022-09-14T12:01:18.535Z,5.75
2022-09-14T12:03:22.101Z,7.20
2022-09-14T12:05:26.302Z,7.65
2022-09-14T12:07:39.676Z,13.88
2022-09-14T12:09:42.511Z,26.02
2022-09-14T12:11:45.421Z,45.08
2022-09-14T12:13:46.923Z,8.80
2022-09-14T12:15:48.483Z,7.22
2022-09-14T12:17:51.665Z,10.20
2022-09-14T12:19:56.169Z,19.73
2022-09-14T12:22:38.820Z,17.92
2022-09-14T12:24:40.373Z,38.35
2022-09-14T12:26:42.108Z,20.23
2022-09-14T12:28:51.544Z,6.38
2022-09-14T12:30:53.479Z,7.63
2022-09-14T12:32:55.110Z,25.65
2022-09-14T12:35:34.463Z,23.48
2022-09-14T12:37:36.298Z,22.48
2022-09-14T12:39:37.991Z,14.70
2022-09-14T12:41:39.438Z,8.82
2022-09-14T12:43:53.677Z,14.07
2022-09-14T12:46:05.317Z,19.10
2022-09-14T12:48:08.534Z,17.80
2022-09-14T12:50:17.705Z,13.27
2022-09-14T12:52:40.572Z,10.48
2022-09-14T12:55:04.526Z,14.73
2022-09-14T12:57:24.527Z,9.85
2022-09-14T12:59:42.288Z,12.63
2022-09-14T13:02:14.480Z,54.33
2022-09-14T13:04:23.789Z,19.05
2022-09-14T13:06:33.876Z,31.67
2022-09-14T13:08:36.227Z,38.85
2022-09-14T13:10:44.368Z,10.95
2022-09-14T13:12:46.799Z,49.25
2022-09-14T13:14:51.877Z,45.25
2022-09-14T13:16:54.106Z,24.80
2022-09-14T13:19:04.807Z,11.93
2022-09-14T13:21:22.289Z,15.48
2022-09-14T13:23:44.038Z,20.67
2022-09-14T13:25:45.537Z,20.33
2022-09-14T13:27:48.104Z,15.93
2022-09-14T13:29:59.211Z,16.15
2022-09-14T13:32:03.719Z,16.58
2022-09-14T13:34:06.129Z,18.52
2022-09-14T13:36:07.640Z,10.65
2022-09-14T13:38:16.205Z,8.85
2022-09-14T13:40:23.054Z,10.05
2022-09-14T13:42:25.225Z,15.98
2022-09-14T13:44:30.940Z,9.73
2022-09-14T13:46:32.555Z,9.20
2022-09-14T13:48:36.523Z,10.80
2022-09-14T13:50:38.090Z,7.50
2022-09-14T13:55:27.576Z,9.43
2022-09-14T13:57:29.326Z,9.82
2022-09-14T13:59:30.842Z,8.75
2022-09-14T14:01:34.387Z,14.73
2022-09-14T14:03:48.087Z,8.43
2022-09-14T14:05:49.622Z,9.38
2022-09-14T14:07:52.158Z,10.93
2022-09-14T14:09:56.079Z,10.73
2022-09-14T14:11:57.778Z,18.73
2022-09-14T14:14:21.539Z,10.85
2022-09-14T14:16:26.335Z,12.48
2022-09-14T14:18:52.416Z,8.40
2022-09-14T14:21:14.214Z,9.05
2022-09-14T14:23:21.771Z,6.68
2022-09-14T14:25:43.444Z,10.25
2022-09-14T14:27:47.925Z,12.75
2022-09-14T14:29:52.178Z,12.80
2022-09-14T14:31:57.201Z,8.85
2022-09-14T14:33:59.212Z,15.55
2022-09-14T14:36:01.983Z,16.80
2022-09-14T14:38:03.484Z,20.92
2022-09-14T14:40:05.864Z,12.95
2022-09-14T14:42:07.816Z,17.40
2022-09-14T14:44:15.763Z,16.98
2022-09-14T14:46:17.690Z,12.85
2022-09-14T14:48:19.422Z,11.02
2022-09-14T14:50:29.945Z,11.88
2022-09-14T14:52:31.628Z,13.02
2022-09-14T14:54:33.173Z,18.85
2022-09-14T14:56:35.117Z,18.77
2022-09-14T14:58:45.810Z,15.27
2022-09-14T15:00:47.994Z,18.83
2022-09-14T15:02:50.180Z,19.80
2022-09-14T15:04:51.703Z,16.10
2022-09-14T15:06:53.534Z,15.85
2022-09-14T15:08:56.593Z,13.57
2022-09-14T15:10:58.531Z,13.35
2022-09-14T15:13:00.303Z,13.68
2022-09-14T15:15:02.090Z,12.80
2022-09-14T15:17:03.816Z,12.68
2022-09-14T15:19:05.439Z,14.30
2022-09-14T15:21:08.043Z,15.20
2022-09-14T15:23:12.081Z,15.63
2022-09-14T15:25:14.492Z,17.58
2022-09-14T15:27:16.056Z,15.40
2022-09-14T15:29:19.987Z,15.90
2022-09-14T15:31:21.696Z,16.35
2022-09-14T15:33:23.507Z,16.83
2022-09-14T15:35:25.027Z,17.30
2022-09-14T15:37:26.560Z,13.02
2022-09-14T15:39:31.286Z,13.00
2022-09-14T15:41:32.835Z,14.05
2022-09-14T15:43:35.040Z,18.73
2022-09-14T15:45:36.573Z,16.60
2022-09-14T15:47:38.151Z,30.80
2022-09-14T15:49:39.688Z,45.33
2022-09-14T15:51:45.839Z,27.75
2022-09-14T15:53:47.977Z,23.85
2022-09-14T15:55:49.484Z,13.45
2022-09-14T15:57:51.059Z,38.30
2022-09-14T15:59:54.277Z,18.05
2022-09-14T16:01:56.061Z,22.45
2022-09-14T16:04:06.434Z,22.08
2022-09-14T16:06:11.137Z,22.45
2022-09-14T16:08:12.682Z,23.83
2022-09-14T16:10:14.269Z,19.95
2022-09-14T16:12:16.142Z,20.50
2022-09-14T16:14:17.663Z,16.52
2022-09-14T16:16:20.415Z,26.63
2022-09-14T16:18:25.545Z,24.83
2022-09-14T16:20:27.104Z,15.45
2022-09-14T16:22:28.618Z,15.35
2022-09-14T16:24:31.170Z,16.95
2022-09-14T16:26:34.710Z,21.13
2022-09-14T16:28:44.014Z,16.23
2022-09-14T16:30:45.584Z,22.77
2022-09-14T16:32:47.437Z,24.40
2022-09-14T16:34:49.063Z,18.42
2022-09-14T16:36:51.232Z,15.35
2022-09-14T16:38:57.407Z,17.67
2022-09-14T16:41:00.365Z,15.07
2022-09-14T16:43:01.998Z,15.13
2022-09-14T16:45:03.751Z,14.07
2022-09-14T16:47:05.469Z,20.13
2022-09-14T16:49:07.332Z,15.63
2022-09-14T16:51:09.504Z,14.70
2022-09-14T16:53:11.010Z,18.33
2022-09-14T16:55:12.560Z,24.70
2022-09-14T16:57:14.480Z,27.45
2022-09-14T16:59:17.779Z,24.20
2022-09-14T17:01:25.212Z,20.33
2022-09-14T17:03:31.561Z,24.27
2022-09-14T17:05:33.430Z,17.27
2022-09-14T17:07:35.051Z,18.38
2022-09-14T17:09:36.840Z,15.50
2022-09-14T17:11:39.938Z,17.45
2022-09-14T17:13:43.387Z,16.50
2022-09-14T17:15:45.019Z,16.35
2022-09-14T17:17:46.594Z,15.55
2022-09-14T17:19:48.332Z,20.58
2022-09-14T17:21:50.717Z,36.55
2022-09-14T17:23:52.370Z,24.63
2022-09-14T17:25:54.200Z,17.10
2022-09-14T17:27:56.039Z,18.70
2022-09-14T17:29:57.568Z,19.67
2022-09-14T17:31:59.175Z,18.63
2022-09-14T17:34:02.157Z,19.00
2022-09-14T17:36:05.554Z,21.45
2022-09-14T17:38:07.093Z,18.75
2022-09-14T17:40:10.930Z,21.98
2022-09-14T17:42:12.577Z,26.80
2022-09-14T17:44:14.642Z,27.65
2022-09-14T17:46:16.826Z,22.90
2022-09-14T17:48:18.631Z,23.65
2022-09-14T17:50:21.207Z,23.58
2022-09-14T17:52:22.770Z,22.83
2022-09-14T17:54:24.431Z,30.67
2022-09-14T17:56:27.720Z,26.55
2022-09-14T17:58:29.355Z,23.45
2022-09-14T18:00:31.009Z,22.33
2022-09-14T18:02:32.538Z,24.77
2022-09-14T18:04:34.122Z,21.52
2022-09-14T18:06:38.470Z,19.73
2022-09-14T18:08:40.390Z,20.35
2022-09-14T18:10:41.958Z,17.77
2022-09-14T18:12:44.712Z,19.40
2022-09-14T18:14:46.932Z,49.25
2022-09-14T18:16:48.968Z,69.50
2022-09-14T18:18:50.902Z,61.63
2022-09-14T18:20:52.539Z,56.15
2022-09-14T18:22:55.372Z,34.60
2022-09-14T18:24:57.087Z,34.13
2022-09-14T18:26:59.481Z,35.70
2022-09-14T18:29:01.019Z,35.58
2022-09-14T18:31:16.071Z,36.92
2022-09-14T18:33:17.833Z,31.60
2022-09-14T18:35:19.450Z,34.90
2022-09-14T18:37:22.977Z,35.88
2022-09-14T18:39:24.813Z,29.17
2022-09-14T18:41:29.164Z,23.20
2022-09-14T18:43:31.263Z,20.98
2022-09-14T18:45:34.138Z,26.15
2022-09-14T18:47:35.805Z,28.92
2022-09-14T18:49:37.349Z,26.58
2022-09-14T18:51:39.231Z,22.90
2022-09-14T18:53:41.151Z,25.02
2022-09-14T18:55:42.831Z,24.48
2022-09-14T18:57:48.780Z,21.95
2022-09-14T18:59:50.334Z,22.20
2022-09-14T19:01:51.941Z,21.45
2022-09-14T19:03:56.079Z,21.45
2022-09-14T19:05:57.760Z,25.05
2022-09-14T19:07:59.935Z,33.78
2022-09-14T19:10:01.497Z,26.48
2022-09-14T19:12:03.269Z,31.83
2022-09-14T19:14:10.588Z,33.75
2022-09-14T19:16:16.564Z,34.70
2022-09-14T19:18:18.248Z,43.83
2022-09-14T19:20:22.253Z,47.45
2022-09-14T19:22:23.904Z,41.47
2022-09-14T19:24:30.767Z,36.05
2022-09-14T19:26:35.160Z,32.65
2022-09-14T19:28:37.491Z,30.13
2022-09-14T19:30:40.076Z,33.67
2022-09-14T19:32:41.706Z,33.13
2022-09-14T19:34:43.583Z,37.15
2022-09-14T19:36:45.332Z,34.33
2022-09-14T19:38:48.377Z,31.17
2022-09-14T19:40:52.873Z,32.78
2022-09-14T19:42:54.734Z,31.88
2022-09-14T19:44:56.340Z,34.50
2022-09-14T19:46:57.925Z,38.30
2022-09-14T19:48:59.554Z,40.45
2022-09-14T19:51:03.168Z,57.72
2022-09-14T19:53:04.801Z,91.80
2022-09-14T19:55:06.678Z,96.82
2022-09-14T19:57:08.288Z,81.18
2022-09-14T19:59:09.987Z,41.22
2022-09-14T20:01:11.585Z,38.97
2022-09-14T20:03:13.344Z,35.63
2022-09-14T20:05:15.759Z,32.88
2022-09-14T20:07:17.587Z,40.78
2022-09-14T20:09:21.856Z,32.85
2022-09-14T20:11:24.805Z,33.17
2022-09-14T20:13:26.305Z,31.98
2022-09-14T20:15:29.424Z,32.55
2022-09-14T20:17:30.970Z,30.13
2022-09-14T20:19:33.053Z,28.58
2022-09-14T20:21:36.239Z,37.97
2022-09-14T20:23:48.621Z,36.03
2022-09-14T20:26:06.197Z,39.50
2022-09-14T20:28:07.962Z,39.10
2022-09-14T20:30:10.017Z,43.47
2022-09-14T20:32:11.526Z,42.25
2022-09-14T20:34:13.986Z,34.80
2022-09-14T20:36:17.605Z,33.92
2022-09-14T20:38:19.127Z,38.05
2022-09-14T20:40:20.653Z,43.92
2022-09-14T20:42:22.263Z,48.55
2022-09-14T20:44:23.828Z,51.55
2022-09-14T20:46:36.527Z,53.38
2022-09-14T20:48:38.717Z,55.20
2022-09-14T20:50:40.200Z,48.13
2022-09-14T20:52:41.718Z,49.95
2022-09-14T20:54:43.308Z,46.65
2022-09-14T20:56:46.221Z,45.10
2022-09-14T20:58:48.493Z,40.50
2022-09-14T21:01:13.867Z,53.72
2022-09-14T21:03:15.420Z,61.05
2022-09-14T21:05:17.061Z,59.08
2022-09-14T21:07:18.575Z,62.25
2022-09-14T21:09:21.394Z,57.88
2022-09-14T21:11:24.599Z,55.88
2022-09-14T21:13:26.101Z,59.28
2022-09-14T21:15:27.634Z,62.50
2022-09-14T21:17:29.117Z,57.92
2022-09-14T21:19:31.161Z,57.72
2022-09-14T21:21:33.053Z,52.40
2022-09-14T21:23:34.615Z,51.25
2022-09-14T21:25:36.227Z,48.20
2022-09-14T21:27:37.713Z,44.50
2022-09-14T21:29:39.224Z,45.55
2022-09-14T21:31:40.803Z,41.90
2022-09-14T21:33:44.159Z,45.80
2022-09-14T21:35:45.708Z,43.53
2022-09-14T21:37:48.616Z,41.67
2022-09-14T21:39:50.256Z,44.88
2022-09-14T21:41:58.427Z,47.00
2022-09-14T21:44:00.958Z,45.95
2022-09-14T21:46:02.551Z,43.40
2022-09-14T21:48:04.403Z,49.67
2022-09-14T21:50:06.574Z,47.13
2022-09-14T21:52:08.507Z,49.90
2022-09-14T21:54:11.611Z,51.15
2022-09-14T21:56:14.028Z,49.25
2022-09-14T21:58:15.540Z,44.22
2022-09-14T22:00:17.068Z,48.38
2022-09-14T22:02:18.638Z,50.22
2022-09-14T22:04:23.344Z,50.22
2022-09-14T22:06:27.615Z,52.28
2022-09-14T22:08:31.246Z,40.00
2022-09-14T22:10:34.605Z,40.83
2022-09-14T22:12:36.112Z,37.97
2022-09-14T22:14:37.700Z,34.05
2022-09-14T22:16:39.551Z,28.20
2022-09-14T22:18:47.287Z,21.63
2022-09-14T22:20:59.282Z,21.20
2022-09-14T22:23:01.665Z,23.13
2022-09-14T22:25:04.559Z,24.00
2022-09-14T22:27:08.317Z,17.95
2022-09-14T22:29:10.582Z,18.27
2022-09-14T22:31:12.249Z,17.77
2022-09-14T22:33:13.867Z,18.77
2022-09-14T22:35:15.444Z,17.52
2022-09-14T22:37:16.957Z,16.98
2022-09-14T22:39:18.505Z,14.93
2022-09-14T22:41:22.262Z,18.27
2022-09-14T22:43:24.398Z,16.02
2022-09-14T22:45:25.918Z,18.08
2022-09-14T22:47:27.397Z,20.38
2022-09-14T22:49:28.929Z,17.92
2022-09-14T22:51:31.318Z,18.38
2022-09-14T22:53:34.144Z,17.52
2022-09-14T22:55:42.364Z,20.20
2022-09-14T22:57:43.851Z,15.75
2022-09-14T22:59:45.374Z,14.82
2022-09-14T23:01:46.906Z,14.25
2022-09-14T23:03:48.433Z,14.07
2022-09-14T23:05:52.269Z,15.05
2022-09-14T23:07:55.200Z,16.20
2022-09-14T23:09:56.752Z,12.15
2022-09-14T23:11:58.303Z,11.60
2022-09-14T23:13:59.960Z,14.05
2022-09-14T23:16:01.870Z,11.63
2022-09-14T23:18:03.426Z,12.27
2022-09-14T23:20:05.502Z,14.95
2022-09-14T23:22:07.284Z,15.35
2022-09-14T23:24:08.972Z,15.68
2022-09-14T23:26:11.966Z,15.68
2022-09-14T23:28:13.473Z,15.05
2022-09-14T23:30:15.077Z,20.13
2022-09-14T23:32:16.581Z,20.42
2022-09-14T23:34:18.097Z,23.38
2022-09-14T23:36:20.133Z,22.92
2022-09-14T23:38:21.969Z,28.48
2022-09-14T23:40:23.646Z,30.35
2022-09-14T23:42:25.262Z,29.63
2022-09-14T23:44:26.786Z,31.73
2022-09-14T23:46:28.356Z,37.38
2022-09-14T23:48:29.907Z,39.85
2022-09-14T23:50:31.918Z,46.97
2022-09-14T23:52:33.453Z,50.00
2022-09-14T23:54:34.978Z,47.08
2022-09-14T23:56:38.590Z,55.50
2022-09-14T23:58:41.908Z,59.85
